createdAt,value
2022-08-26T00:01:46.744Z,19.67
2022-08-26T00:04:14.074Z,19.66
2022-08-26T00:06:42.752Z,19.67
2022-08-26T00:09:16.231Z,19.63
2022-08-26T00:11:43.807Z,19.63
2022-08-26T00:14:10.594Z,19.62
2022-08-26T00:16:37.674Z,19.64
2022-08-26T00:19:07.986Z,19.60
2022-08-26T00:21:35.342Z,19.59
2022-08-26T00:24:04.847Z,19.59
2022-08-26T00:26:34.870Z,19.59
2022-08-26T00:29:02.189Z,19.57
2022-08-26T00:31:31.254Z,19.61
2022-08-26T00:33:58.936Z,19.57
2022-08-26T00:36:29.737Z,19.60
2022-08-26T00:38:56.827Z,19.60
2022-08-26T00:41:24.016Z,19.61
2022-08-26T00:43:52.741Z,19.61
2022-08-26T00:46:23.632Z,19.61
2022-08-26T00:48:54.064Z,19.63
2022-08-26T00:51:24.725Z,19.60
2022-08-26T00:54:01.414Z,19.60
2022-08-26T00:56:36.483Z,19.61
2022-08-26T00:59:08.590Z,19.61
2022-08-26T01:01:38.702Z,19.61
2022-08-26T01:04:06.086Z,19.63
2022-08-26T01:06:32.992Z,19.62
2022-08-26T01:09:00.302Z,19.62
2022-08-26T01:11:27.799Z,19.60
2022-08-26T01:13:56.222Z,19.60
2022-08-26T01:16:27.330Z,19.60
2022-08-26T01:18:59.427Z,19.62
2022-08-26T01:21:29.526Z,19.59
2022-08-26T01:23:59.529Z,19.56
2022-08-26T01:26:30.208Z,19.53
2022-08-26T01:29:00.282Z,19.48
2022-08-26T01:31:31.089Z,19.50
2022-08-26T01:34:03.355Z,19.47
2022-08-26T01:36:31.264Z,19.47
2022-08-26T01:38:59.631Z,19.44
2022-08-26T01:41:29.253Z,19.43
2022-08-26T01:43:57.914Z,19.44
2022-08-26T01:46:27.070Z,19.44
2022-08-26T01:48:55.369Z,19.42
2022-08-26T01:51:25.233Z,19.44
2022-08-26T01:53:52.464Z,19.41
2022-08-26T01:56:23.205Z,19.44
2022-08-26T01:58:54.180Z,19.43
2022-08-26T02:01:21.734Z,19.39
2022-08-26T02:03:54.635Z,19.34
2022-08-26T02:06:22.196Z,19.31
2022-08-26T02:08:52.918Z,19.32
2022-08-26T02:11:21.217Z,19.33
2022-08-26T02:13:52.314Z,19.32
2022-08-26T02:16:24.405Z,19.31
2022-08-26T02:18:52.801Z,19.33
2022-08-26T02:21:20.462Z,19.25
2022-08-26T02:23:47.698Z,19.30
2022-08-26T02:26:17.995Z,19.31
2022-08-26T02:28:53.131Z,19.28
2022-08-26T02:31:20.061Z,19.30
2022-08-26T02:33:47.711Z,19.24
2022-08-26T02:36:19.898Z,19.22
2022-08-26T02:38:47.234Z,19.21
2022-08-26T02:41:14.701Z,19.21
2022-08-26T02:43:41.478Z,19.19
2022-08-26T02:46:09.694Z,19.19
2022-08-26T02:48:36.901Z,19.22
2022-08-26T02:51:04.326Z,19.17
2022-08-26T02:53:31.989Z,19.21
2022-08-26T02:56:02.762Z,19.19
2022-08-26T02:58:29.947Z,19.16
2022-08-26T03:00:56.759Z,19.12
2022-08-26T03:03:25.477Z,19.09
2022-08-26T03:05:52.468Z,19.06
2022-08-26T03:08:19.599Z,19.03
2022-08-26T03:10:48.050Z,19.02
2022-08-26T03:13:16.442Z,19.00
2022-08-26T03:15:44.163Z,18.96
2022-08-26T03:18:13.439Z,18.97
2022-08-26T03:20:42.036Z,18.96
2022-08-26T03:23:10.881Z,18.94
2022-08-26T03:25:37.772Z,18.92
2022-08-26T03:28:05.326Z,18.90
2022-08-26T03:30:45.519Z,18.96
2022-08-26T03:33:13.242Z,18.98
2022-08-26T03:35:44.078Z,18.96
2022-08-26T03:38:11.281Z,18.95
2022-08-26T03:40:39.064Z,18.97
2022-08-26T03:43:09.512Z,18.99
2022-08-26T03:45:37.219Z,19.01
2022-08-26T03:48:03.970Z,18.97
2022-08-26T03:50:34.218Z,18.97
2022-08-26T03:53:04.659Z,18.96
2022-08-26T03:55:34.329Z,18.95
2022-08-26T03:58:02.173Z,18.95
2022-08-26T04:00:29.990Z,18.94
2022-08-26T04:02:57.179Z,18.90
2022-08-26T04:05:25.390Z,18.92
2022-08-26T04:07:52.435Z,18.94
2022-08-26T04:10:29.291Z,18.97
2022-08-26T04:13:06.404Z,19.01
2022-08-26T04:15:33.440Z,19.03
2022-08-26T04:18:00.707Z,19.01
2022-08-26T04:20:28.731Z,19.03
2022-08-26T04:22:55.644Z,19.04
2022-08-26T04:25:24.171Z,19.02
2022-08-26T04:27:51.437Z,18.94
2022-08-26T04:30:20.055Z,18.89
2022-08-26T04:32:48.823Z,18.86
2022-08-26T04:35:15.676Z,18.91
2022-08-26T04:37:44.096Z,18.89
2022-08-26T04:40:11.569Z,18.88
2022-08-26T04:42:40.057Z,18.89
2022-08-26T04:45:10.374Z,18.88
2022-08-26T04:47:38.531Z,18.93
2022-08-26T04:50:07.471Z,18.95
2022-08-26T04:52:34.398Z,18.96
2022-08-26T04:55:01.188Z,18.96
2022-08-26T04:57:28.365Z,18.98
2022-08-26T04:59:56.863Z,18.99
2022-08-26T05:02:24.267Z,18.97
2022-08-26T05:04:52.459Z,19.00
2022-08-26T05:07:19.276Z,18.96
2022-08-26T05:09:46.144Z,18.99
2022-08-26T05:12:12.922Z,19.00
2022-08-26T05:14:41.497Z,19.02
2022-08-26T05:17:09.742Z,19.02
2022-08-26T05:19:42.861Z,19.05
2022-08-26T05:22:10.167Z,19.03
2022-08-26T05:24:40.061Z,19.09
2022-08-26T05:27:11.453Z,19.08
2022-08-26T05:29:39.086Z,19.12
2022-08-26T05:32:06.375Z,19.13
2022-08-26T05:34:35.036Z,19.16
2022-08-26T05:37:01.880Z,19.19
2022-08-26T05:39:29.232Z,19.20
2022-08-26T05:41:56.248Z,19.21
2022-08-26T05:44:23.068Z,19.22
2022-08-26T05:46:51.739Z,19.18
2022-08-26T05:49:18.904Z,19.14
2022-08-26T05:51:48.094Z,19.15
2022-08-26T05:54:22.102Z,19.23
2022-08-26T05:56:50.002Z,19.19
2022-08-26T05:59:16.847Z,19.22
2022-08-26T06:01:50.864Z,19.21
2022-08-26T06:04:18.117Z,19.20
2022-08-26T06:06:48.460Z,19.24
2022-08-26T06:09:17.458Z,19.19
2022-08-26T06:11:45.161Z,19.24
2022-08-26T06:14:12.277Z,19.23
2022-08-26T06:16:41.590Z,19.25
2022-08-26T06:19:10.571Z,19.23
2022-08-26T06:21:40.204Z,19.19
2022-08-26T06:24:29.200Z,19.17
2022-08-26T06:26:59.084Z,19.25
2022-08-26T06:29:26.609Z,19.26
2022-08-26T06:31:53.934Z,19.22
2022-08-26T06:34:20.902Z,19.20
2022-08-26T06:36:49.447Z,19.23
2022-08-26T06:39:21.824Z,19.27
2022-08-26T06:41:48.962Z,19.34
2022-08-26T06:44:18.269Z,19.44
2022-08-26T06:46:46.160Z,19.49
2022-08-26T06:49:17.291Z,19.59
2022-08-26T06:51:44.360Z,19.56
2022-08-26T06:54:11.509Z,19.51
2022-08-26T06:56:41.801Z,19.46
2022-08-26T06:59:09.972Z,19.48
2022-08-26T07:01:43.067Z,19.54
2022-08-26T07:04:12.044Z,19.65
2022-08-26T07:06:40.693Z,19.67
2022-08-26T07:09:10.159Z,19.68
2022-08-26T07:11:39.735Z,19.66
2022-08-26T07:14:07.281Z,19.70
2022-08-26T07:16:35.850Z,19.71
2022-08-26T07:19:10.878Z,19.57
2022-08-26T07:21:41.659Z,19.57
2022-08-26T07:24:11.142Z,19.49
2022-08-26T07:26:42.833Z,19.43
2022-08-26T07:29:11.587Z,19.41
2022-08-26T07:31:39.416Z,19.45
2022-08-26T07:34:10.634Z,19.37
2022-08-26T07:36:37.650Z,19.30
2022-08-26T07:39:05.151Z,19.33
2022-08-26T07:41:32.008Z,19.34
2022-08-26T07:44:00.206Z,19.38
2022-08-26T07:46:27.473Z,19.43
2022-08-26T07:48:58.111Z,19.54
2022-08-26T07:51:26.186Z,19.57
2022-08-26T07:53:54.383Z,19.62
2022-08-26T07:56:21.799Z,19.66
2022-08-26T07:58:51.592Z,19.84
2022-08-26T08:01:21.149Z,19.87
2022-08-26T08:03:51.536Z,19.89
2022-08-26T08:06:19.402Z,19.85
2022-08-26T08:08:46.784Z,19.89
2022-08-26T08:11:14.307Z,19.85
2022-08-26T08:13:41.087Z,19.71
2022-08-26T08:16:12.550Z,19.59
2022-08-26T08:18:41.542Z,19.70
2022-08-26T08:21:21.449Z,19.69
2022-08-26T08:23:49.097Z,19.93
2022-08-26T08:26:16.885Z,19.96
2022-08-26T08:28:43.677Z,20.26
2022-08-26T08:31:21.616Z,20.37
2022-08-26T08:34:01.731Z,20.32
2022-08-26T08:36:32.182Z,20.30
2022-08-26T08:39:03.013Z,20.43
2022-08-26T08:41:45.022Z,20.34
2022-08-26T08:44:15.986Z,20.25
2022-08-26T08:46:44.488Z,20.18
2022-08-26T08:49:14.086Z,20.32
2022-08-26T08:51:48.335Z,20.53
2022-08-26T08:54:15.603Z,20.64
2022-08-26T08:56:47.722Z,20.43
2022-08-26T08:59:20.497Z,20.41
2022-08-26T09:01:58.705Z,20.46
2022-08-26T09:05:04.607Z,20.64
2022-08-26T09:07:37.890Z,20.90
2022-08-26T09:10:24.672Z,21.08
2022-08-26T09:12:52.293Z,20.94
2022-08-26T09:15:25.473Z,21.23
2022-08-26T09:18:01.471Z,21.09
2022-08-26T09:20:43.761Z,20.66
2022-08-26T09:23:14.539Z,20.51
2022-08-26T09:25:48.063Z,20.44
2022-08-26T09:28:18.708Z,20.49
2022-08-26T09:30:47.942Z,20.61
2022-08-26T09:33:17.470Z,20.66
2022-08-26T09:35:48.612Z,20.84
2022-08-26T09:38:26.672Z,21.03
2022-08-26T09:40:59.331Z,20.78
2022-08-26T09:43:28.605Z,20.66
2022-08-26T09:46:12.308Z,20.60
2022-08-26T09:48:41.037Z,20.82
2022-08-26T09:51:28.175Z,20.98
2022-08-26T09:53:57.770Z,21.18
2022-08-26T09:56:27.658Z,20.82
2022-08-26T09:58:56.251Z,20.65
2022-08-26T10:01:30.669Z,20.75
2022-08-26T10:04:06.481Z,20.78
2022-08-26T10:06:41.178Z,20.81
2022-08-26T10:09:12.364Z,20.57
2022-08-26T10:11:44.960Z,20.47
2022-08-26T10:14:23.328Z,20.10
2022-08-26T10:16:59.645Z,20.14
2022-08-26T10:19:29.102Z,20.00
2022-08-26T10:22:14.069Z,20.11
2022-08-26T10:24:48.998Z,20.49
2022-08-26T10:27:25.402Z,20.94
2022-08-26T10:30:02.057Z,21.16
2022-08-26T10:32:36.012Z,21.35
2022-08-26T10:35:11.294Z,20.80
2022-08-26T10:37:41.769Z,20.60
2022-08-26T10:40:14.973Z,20.55
2022-08-26T10:42:46.312Z,20.33
2022-08-26T10:45:16.702Z,20.45
2022-08-26T10:47:48.923Z,20.67
2022-08-26T10:50:18.055Z,20.90
2022-08-26T10:52:57.620Z,21.21
2022-08-26T10:55:35.638Z,21.45
2022-08-26T10:58:26.618Z,22.19
2022-08-26T11:01:22.610Z,23.02
2022-08-26T11:03:58.942Z,23.27
2022-08-26T11:06:28.874Z,23.16
2022-08-26T11:08:57.228Z,22.85
2022-08-26T11:11:48.178Z,22.39
2022-08-26T11:14:56.212Z,22.28
2022-08-26T11:17:57.175Z,22.07
2022-08-26T11:20:36.890Z,21.98
2022-08-26T11:23:37.970Z,21.76
2022-08-26T11:26:32.748Z,21.48
2022-08-26T11:29:04.677Z,21.49
2022-08-26T11:31:53.522Z,21.57
2022-08-26T11:35:05.130Z,21.88
2022-08-26T11:37:36.414Z,22.18
2022-08-26T11:40:09.851Z,22.27
2022-08-26T11:42:41.693Z,22.17
2022-08-26T11:45:22.564Z,22.25
2022-08-26T11:47:50.564Z,22.19
2022-08-26T11:50:20.268Z,22.25
2022-08-26T11:52:55.795Z,21.97
2022-08-26T11:55:24.101Z,21.51
2022-08-26T11:57:54.586Z,21.31
2022-08-26T12:00:27.516Z,21.32
2022-08-26T12:03:05.732Z,21.27
2022-08-26T12:05:43.087Z,21.29
2022-08-26T12:08:13.885Z,21.21
2022-08-26T12:10:40.748Z,21.16
2022-08-26T12:13:08.971Z,20.96
2022-08-26T12:15:37.321Z,20.92
2022-08-26T12:18:17.906Z,20.86
2022-08-26T12:20:51.427Z,20.89
2022-08-26T12:23:26.988Z,20.87
2022-08-26T12:26:04.278Z,20.79
2022-08-26T12:28:31.570Z,20.89
2022-08-26T12:31:02.252Z,20.85
2022-08-26T12:33:30.381Z,20.83
2022-08-26T12:35:59.533Z,20.81
2022-08-26T12:38:28.222Z,20.89
2022-08-26T12:40:57.443Z,20.87
2022-08-26T12:43:42.000Z,20.84
2022-08-26T12:46:13.115Z,20.64
2022-08-26T12:48:44.331Z,20.57
2022-08-26T12:51:22.245Z,20.61
2022-08-26T12:53:49.116Z,20.54
2022-08-26T12:56:25.180Z,20.50
2022-08-26T12:59:08.826Z,20.43
2022-08-26T13:01:43.443Z,20.34
2022-08-26T13:04:33.900Z,20.27
2022-08-26T13:07:15.531Z,20.20
2022-08-26T13:09:42.477Z,20.18
2022-08-26T13:12:11.739Z,20.24
2022-08-26T13:14:38.682Z,20.14
2022-08-26T13:17:07.096Z,20.27
2022-08-26T13:19:33.947Z,20.26
2022-08-26T13:22:01.333Z,20.19
2022-08-26T13:24:33.780Z,20.31
2022-08-26T13:27:01.780Z,20.36
2022-08-26T13:29:28.776Z,20.25
2022-08-26T13:31:55.955Z,20.31
2022-08-26T13:34:26.893Z,20.20
2022-08-26T13:36:55.371Z,20.38
2022-08-26T13:39:22.968Z,20.56
2022-08-26T13:41:50.145Z,20.64
2022-08-26T13:44:17.550Z,20.79
2022-08-26T13:49:12.860Z,21.09
2022-08-26T13:51:41.935Z,21.41
2022-08-26T13:54:09.263Z,21.45
2022-08-26T13:56:36.413Z,21.47
2022-08-26T13:59:04.751Z,21.70
2022-08-26T14:01:32.543Z,21.74
2022-08-26T14:03:59.681Z,21.57
2022-08-26T14:06:27.174Z,21.26
2022-08-26T14:08:55.540Z,21.09
2022-08-26T14:11:25.107Z,21.00
2022-08-26T14:13:52.932Z,21.07
2022-08-26T14:16:24.465Z,21.06
2022-08-26T14:18:52.487Z,21.23
2022-08-26T14:21:20.199Z,21.43
2022-08-26T14:23:47.223Z,21.65
2022-08-26T14:26:28.549Z,21.80
2022-08-26T14:28:57.156Z,22.09
2022-08-26T14:31:24.367Z,21.94
2022-08-26T14:33:51.320Z,21.62
2022-08-26T14:36:32.312Z,21.70
2022-08-26T14:39:02.413Z,22.10
2022-08-26T14:41:32.628Z,21.90
2022-08-26T14:44:02.098Z,21.99
2022-08-26T14:46:31.623Z,22.10
2022-08-26T14:49:02.060Z,22.13
2022-08-26T14:51:31.417Z,21.76
2022-08-26T14:54:13.300Z,21.99
2022-08-26T14:56:45.002Z,21.94
2022-08-26T14:59:12.400Z,22.12
2022-08-26T15:01:39.536Z,21.50
2022-08-26T15:04:06.665Z,20.93
2022-08-26T15:06:34.684Z,20.87
2022-08-26T15:09:02.209Z,21.26
2022-08-26T15:11:29.504Z,21.28
2022-08-26T15:13:57.810Z,21.28
2022-08-26T15:16:26.961Z,21.27
2022-08-26T15:18:53.948Z,21.81
2022-08-26T15:21:21.549Z,22.59
2022-08-26T15:23:49.843Z,22.65
2022-08-26T15:26:17.427Z,22.60
2022-08-26T15:28:44.859Z,22.56
2022-08-26T15:31:13.452Z,22.01
2022-08-26T15:33:40.608Z,21.72
2022-08-26T15:36:09.236Z,21.70
2022-08-26T15:38:39.559Z,21.10
2022-08-26T15:41:08.790Z,20.80
2022-08-26T15:43:36.551Z,20.63
2022-08-26T15:46:04.006Z,20.77
2022-08-26T15:48:32.321Z,20.73
2022-08-26T15:51:01.103Z,20.62
2022-08-26T15:53:30.311Z,20.67
2022-08-26T15:55:57.492Z,20.80
2022-08-26T15:58:26.453Z,20.82
2022-08-26T16:00:55.232Z,20.81
2022-08-26T16:03:22.732Z,20.58
2022-08-26T16:05:51.177Z,20.40
2022-08-26T16:08:18.355Z,20.47
2022-08-26T16:10:50.353Z,20.55
2022-08-26T16:13:19.825Z,20.75
2022-08-26T16:15:47.662Z,20.99
2022-08-26T16:18:15.844Z,21.41
2022-08-26T16:20:55.368Z,21.53
2022-08-26T16:23:37.382Z,21.40
2022-08-26T16:26:08.514Z,21.35
2022-08-26T16:28:38.688Z,21.65
2022-08-26T16:31:06.443Z,21.90
2022-08-26T16:33:33.430Z,21.83
2022-08-26T16:36:00.305Z,21.45
2022-08-26T16:38:27.267Z,21.33
2022-08-26T16:40:55.822Z,21.21
2022-08-26T16:43:22.680Z,20.97
2022-08-26T16:45:49.616Z,20.82
2022-08-26T16:48:16.567Z,20.68
2022-08-26T16:50:43.810Z,20.75
2022-08-26T16:55:44.884Z,20.12
2022-08-26T16:58:13.332Z,19.76
2022-08-26T17:00:40.633Z,19.42
2022-08-26T17:03:07.449Z,19.29
2022-08-26T17:05:34.873Z,19.15
2022-08-26T17:08:02.834Z,19.18
2022-08-26T17:10:30.272Z,19.16
2022-08-26T17:12:57.597Z,19.35
2022-08-26T17:15:26.334Z,19.55
2022-08-26T17:17:54.284Z,19.69
2022-08-26T17:20:22.681Z,19.62
2022-08-26T17:22:51.616Z,19.48
2022-08-26T17:25:21.862Z,19.24
2022-08-26T17:27:49.041Z,18.97
2022-08-26T17:30:17.251Z,18.71
2022-08-26T17:32:46.202Z,18.59
2022-08-26T17:35:14.827Z,18.53
2022-08-26T17:37:42.366Z,18.51
2022-08-26T17:40:12.561Z,18.47
2022-08-26T17:42:40.490Z,18.43
2022-08-26T17:45:08.689Z,18.44
2022-08-26T17:47:35.746Z,18.38
2022-08-26T17:50:06.037Z,18.26
2022-08-26T17:52:32.986Z,18.26
2022-08-26T17:54:59.787Z,18.29
2022-08-26T17:57:27.178Z,18.17
2022-08-26T17:59:54.401Z,18.11
2022-08-26T18:02:22.146Z,18.04
2022-08-26T18:04:49.005Z,17.99
2022-08-26T18:07:17.583Z,17.93
2022-08-26T18:09:44.530Z,17.96
2022-08-26T18:12:12.159Z,17.87
2022-08-26T18:14:39.014Z,17.82
2022-08-26T18:17:05.959Z,17.71
2022-08-26T18:19:32.824Z,17.69
2022-08-26T18:21:59.680Z,17.64
2022-08-26T18:24:30.452Z,17.56
2022-08-26T18:26:57.961Z,17.44
2022-08-26T18:29:25.630Z,17.33
2022-08-26T18:31:52.584Z,17.27
2022-08-26T18:34:19.956Z,17.23
2022-08-26T18:36:47.569Z,17.27
2022-08-26T18:39:15.860Z,17.17
2022-08-26T18:41:46.268Z,17.07
2022-08-26T18:44:15.223Z,17.10
2022-08-26T18:46:43.638Z,17.00
2022-08-26T18:49:11.027Z,16.93
2022-08-26T18:51:38.206Z,16.81
2022-08-26T18:54:07.444Z,16.73
2022-08-26T18:56:35.259Z,16.71
2022-08-26T18:59:04.914Z,16.57
2022-08-26T19:01:32.883Z,16.51
2022-08-26T19:04:01.661Z,16.48
2022-08-26T19:06:31.722Z,16.44
2022-08-26T19:08:59.002Z,16.45
2022-08-26T19:11:31.665Z,16.39
2022-08-26T19:13:59.755Z,16.22
2022-08-26T19:16:28.764Z,16.22
2022-08-26T19:18:56.334Z,16.28
2022-08-26T19:21:23.166Z,16.33
2022-08-26T19:23:50.733Z,16.53
2022-08-26T19:26:19.400Z,16.65
2022-08-26T19:28:47.160Z,16.74
2022-08-26T19:31:14.093Z,16.81
2022-08-26T19:33:43.881Z,16.83
2022-08-26T19:36:15.044Z,16.78
2022-08-26T19:38:42.902Z,16.66
2022-08-26T19:41:11.551Z,16.60
2022-08-26T19:43:38.330Z,16.52
2022-08-26T19:46:11.873Z,16.38
2022-08-26T19:48:39.090Z,16.31
2022-08-26T19:51:07.534Z,16.28
2022-08-26T19:53:34.443Z,16.22
2022-08-26T19:56:01.188Z,16.19
2022-08-26T19:58:28.211Z,16.11
2022-08-26T20:00:55.161Z,16.10
2022-08-26T20:03:23.299Z,16.13
2022-08-26T20:05:50.325Z,16.18
2022-08-26T20:08:22.279Z,16.30
2022-08-26T20:10:50.446Z,16.36
2022-08-26T20:13:17.316Z,16.41
2022-08-26T20:15:44.419Z,16.54
2022-08-26T20:18:29.820Z,16.55
2022-08-26T20:21:16.121Z,16.51
2022-08-26T20:23:44.600Z,16.46
2022-08-26T20:26:11.633Z,16.40
2022-08-26T20:28:38.528Z,16.29
2022-08-26T20:31:05.724Z,16.17
2022-08-26T20:33:45.980Z,16.11
2022-08-26T20:36:14.375Z,16.05
2022-08-26T20:38:41.429Z,16.04
2022-08-26T20:41:10.672Z,16.09
2022-08-26T20:43:37.605Z,16.16
2022-08-26T20:46:08.350Z,16.32
2022-08-26T20:48:44.798Z,16.40
2022-08-26T20:51:12.429Z,16.44
2022-08-26T20:53:39.706Z,16.52
2022-08-26T20:56:10.315Z,16.56
2022-08-26T20:58:38.681Z,16.64
2022-08-26T21:01:08.096Z,16.68
2022-08-26T21:03:36.022Z,16.71
2022-08-26T21:06:03.925Z,16.74
2022-08-26T21:08:33.328Z,16.80
2022-08-26T21:11:00.787Z,16.82
2022-08-26T21:13:42.876Z,16.86
2022-08-26T21:16:15.573Z,16.83
2022-08-26T21:18:43.241Z,16.88
2022-08-26T21:21:10.383Z,16.86
2022-08-26T21:23:37.745Z,16.80
2022-08-26T21:26:06.465Z,16.80
2022-08-26T21:28:37.189Z,16.75
2022-08-26T21:31:04.268Z,16.72
2022-08-26T21:33:31.291Z,16.76
2022-08-26T21:35:58.260Z,16.82
2022-08-26T21:38:25.600Z,16.86
2022-08-26T21:40:59.868Z,16.88
2022-08-26T21:43:35.052Z,16.90
2022-08-26T21:46:14.673Z,16.90
2022-08-26T21:48:42.012Z,16.91
2022-08-26T21:51:09.802Z,16.88
2022-08-26T21:53:37.212Z,16.85
2022-08-26T21:56:05.640Z,16.72
2022-08-26T21:58:32.685Z,16.59
2022-08-26T22:01:02.758Z,16.43
2022-08-26T22:03:31.285Z,16.30
2022-08-26T22:06:04.931Z,16.21
2022-08-26T22:08:33.371Z,16.12
2022-08-26T22:11:02.059Z,16.04
2022-08-26T22:13:31.887Z,15.94
2022-08-26T22:15:59.470Z,15.88
2022-08-26T22:18:28.465Z,15.86
2022-08-26T22:20:59.947Z,15.83
2022-08-26T22:23:27.381Z,15.85
2022-08-26T22:25:54.987Z,15.88
2022-08-26T22:28:22.588Z,15.86
2022-08-26T22:30:49.612Z,15.84
2022-08-26T22:33:17.712Z,15.79
2022-08-26T22:35:47.437Z,15.70
2022-08-26T22:38:16.258Z,15.56
2022-08-26T22:40:44.571Z,15.45
2022-08-26T22:43:12.265Z,15.33
2022-08-26T22:45:43.348Z,15.16
2022-08-26T22:48:11.821Z,15.17
2022-08-26T22:50:38.973Z,15.12
2022-08-26T22:53:05.919Z,14.91
2022-08-26T22:55:34.151Z,14.78
2022-08-26T22:58:01.264Z,14.66
2022-08-26T23:00:31.979Z,14.56
2022-08-26T23:03:00.384Z,14.51
2022-08-26T23:05:27.502Z,14.43
2022-08-26T23:07:56.355Z,14.33
2022-08-26T23:10:24.302Z,14.23
2022-08-26T23:12:52.879Z,14.19
2022-08-26T23:15:21.778Z,14.11
2022-08-26T23:17:50.108Z,14.09
2022-08-26T23:20:26.703Z,13.97
2022-08-26T23:22:54.105Z,13.91
2022-08-26T23:25:21.266Z,13.86
2022-08-26T23:27:48.849Z,13.89
2022-08-26T23:30:20.298Z,13.90
2022-08-26T23:32:48.085Z,14.02
2022-08-26T23:35:15.839Z,14.00
2022-08-26T23:37:46.137Z,14.06
2022-08-26T23:40:19.184Z,14.09
2022-08-26T23:42:46.091Z,14.12
2022-08-26T23:45:14.665Z,14.04
2022-08-26T23:47:43.130Z,14.05
2022-08-26T23:50:10.359Z,14.05
2022-08-26T23:52:55.732Z,13.98
2022-08-26T23:55:23.786Z,13.93
2022-08-26T23:57:50.741Z,13.86
